sensor_id;sensor_type;location;lat;lon;timestamp;P1;durP1;ratioP1;P2;durP2;ratioP2
13051;SDS011;6592;47.484;9.726;2022-12-29T00:01:08;1.55;;;0.60;;
13051;SDS011;6592;47.484;9.726;2022-12-29T00:03:39;1.85;;;0.52;;
13051;SDS011;6592;47.484;9.726;2022-12-29T00:06:07;2.20;;;0.77;;
13051;SDS011;6592;47.484;9.726;2022-12-29T00:08:36;1.65;;;0.57;;
13051;SDS011;6592;47.484;9.726;2022-12-29T00:11:07;1.75;;;0.30;;
13051;SDS011;6592;47.484;9.726;2022-12-29T00:13:37;1.40;;;0.50;;
13051;SDS011;6592;47.484;9.726;2022-12-29T00:16:23;2.00;;;0.73;;
13051;SDS011;6592;47.484;9.726;2022-12-29T00:18:54;2.03;;;0.73;;
13051;SDS011;6592;47.484;9.726;2022-12-29T00:21:23;2.28;;;0.60;;
13051;SDS011;6592;47.484;9.726;2022-12-29T00:24:11;1.45;;;0.50;;
13051;SDS011;6592;47.484;9.726;2022-12-29T00:26:58;1.40;;;0.60;;
13051;SDS011;6592;47.484;9.726;2022-12-29T00:29:55;1.73;;;0.68;;
13051;SDS011;6592;47.484;9.726;2022-12-29T00:32:41;1.50;;;0.70;;
13051;SDS011;6592;47.484;9.726;2022-12-29T00:35:29;2.22;;;0.43;;
13051;SDS011;6592;47.484;9.726;2022-12-29T00:38:01;1.90;;;0.57;;
13051;SDS011;6592;47.484;9.726;2022-12-29T00:40:45;2.30;;;0.82;;
13051;SDS011;6592;47.484;9.726;2022-12-29T00:43:30;2.15;;;0.80;;
13051;SDS011;6592;47.484;9.726;2022-12-29T00:46:16;1.00;;;0.50;;
13051;SDS011;6592;47.484;9.726;2022-12-29T00:48:45;2.00;;;0.77;;
13051;SDS011;6592;47.484;9.726;2022-12-29T00:51:33;3.05;;;0.70;;
13051;SDS011;6592;47.484;9.726;2022-12-29T00:54:01;1.65;;;0.60;;
13051;SDS011;6592;47.484;9.726;2022-12-29T00:56:30;1.55;;;0.50;;
13051;SDS011;6592;47.484;9.726;2022-12-29T00:58:59;1.90;;;0.40;;
13051;SDS011;6592;47.484;9.726;2022-12-29T01:01:29;1.15;;;0.47;;
13051;SDS011;6592;47.484;9.726;2022-12-29T01:03:58;1.25;;;0.43;;
13051;SDS011;6592;47.484;9.726;2022-12-29T01:09:00;1.27;;;0.50;;
13051;SDS011;6592;47.484;9.726;2022-12-29T01:11:46;1.25;;;0.50;;
13051;SDS011;6592;47.484;9.726;2022-12-29T01:14:14;1.58;;;0.60;;
13051;SDS011;6592;47.484;9.726;2022-12-29T01:16:43;1.20;;;0.50;;
13051;SDS011;6592;47.484;9.726;2022-12-29T01:19:12;1.73;;;0.45;;
13051;SDS011;6592;47.484;9.726;2022-12-29T01:21:43;1.95;;;0.55;;
13051;SDS011;6592;47.484;9.726;2022-12-29T01:24:14;1.48;;;0.50;;
13051;SDS011;6592;47.484;9.726;2022-12-29T01:26:43;1.50;;;0.40;;
13051;SDS011;6592;47.484;9.726;2022-12-29T01:29:12;1.55;;;0.60;;
13051;SDS011;6592;47.484;9.726;2022-12-29T01:31:41;0.77;;;0.38;;
13051;SDS011;6592;47.484;9.726;2022-12-29T01:34:09;1.10;;;0.30;;
13051;SDS011;6592;47.484;9.726;2022-12-29T01:36:37;1.00;;;0.40;;
13051;SDS011;6592;47.484;9.726;2022-12-29T01:39:06;2.40;;;0.60;;
13051;SDS011;6592;47.484;9.726;2022-12-29T01:41:36;1.70;;;0.40;;
13051;SDS011;6592;47.484;9.726;2022-12-29T01:47:10;0.95;;;0.50;;
13051;SDS011;6592;47.484;9.726;2022-12-29T01:49:39;1.08;;;0.40;;
13051;SDS011;6592;47.484;9.726;2022-12-29T01:52:08;1.42;;;0.45;;
13051;SDS011;6592;47.484;9.726;2022-12-29T01:54:37;1.60;;;0.60;;
13051;SDS011;6592;47.484;9.726;2022-12-29T01:57:10;1.10;;;0.50;;
13051;SDS011;6592;47.484;9.726;2022-12-29T01:59:45;0.93;;;0.30;;
13051;SDS011;6592;47.484;9.726;2022-12-29T02:02:20;1.50;;;0.60;;
13051;SDS011;6592;47.484;9.726;2022-12-29T02:04:49;2.17;;;0.88;;
13051;SDS011;6592;47.484;9.726;2022-12-29T02:07:20;1.55;;;0.35;;
13051;SDS011;6592;47.484;9.726;2022-12-29T02:09:52;2.63;;;0.55;;
13051;SDS011;6592;47.484;9.726;2022-12-29T02:12:24;1.23;;;0.50;;
13051;SDS011;6592;47.484;9.726;2022-12-29T02:14:53;1.58;;;0.55;;
13051;SDS011;6592;47.484;9.726;2022-12-29T02:17:29;1.13;;;0.43;;
13051;SDS011;6592;47.484;9.726;2022-12-29T02:23:17;1.77;;;0.50;;
13051;SDS011;6592;47.484;9.726;2022-12-29T02:29:08;1.05;;;0.50;;
13051;SDS011;6592;47.484;9.726;2022-12-29T02:32:02;0.88;;;0.40;;
13051;SDS011;6592;47.484;9.726;2022-12-29T02:34:35;2.10;;;0.45;;
13051;SDS011;6592;47.484;9.726;2022-12-29T02:37:17;0.63;;;0.30;;
13051;SDS011;6592;47.484;9.726;2022-12-29T02:39:52;1.00;;;0.40;;
13051;SDS011;6592;47.484;9.726;2022-12-29T02:42:31;2.15;;;0.50;;
13051;SDS011;6592;47.484;9.726;2022-12-29T02:45:04;0.60;;;0.20;;
13051;SDS011;6592;47.484;9.726;2022-12-29T02:47:41;0.93;;;0.28;;
13051;SDS011;6592;47.484;9.726;2022-12-29T02:50:20;1.83;;;0.60;;
13051;SDS011;6592;47.484;9.726;2022-12-29T02:52:54;1.40;;;0.43;;
13051;SDS011;6592;47.484;9.726;2022-12-29T02:55:26;1.40;;;0.52;;
13051;SDS011;6592;47.484;9.726;2022-12-29T02:58:06;1.20;;;0.30;;
13051;SDS011;6592;47.484;9.726;2022-12-29T03:00:48;1.15;;;0.52;;
13051;SDS011;6592;47.484;9.726;2022-12-29T03:03:29;1.10;;;0.32;;
13051;SDS011;6592;47.484;9.726;2022-12-29T03:06:09;1.33;;;0.40;;
13051;SDS011;6592;47.484;9.726;2022-12-29T03:08:52;0.90;;;0.32;;
13051;SDS011;6592;47.484;9.726;2022-12-29T03:11:27;1.77;;;0.50;;
13051;SDS011;6592;47.484;9.726;2022-12-29T03:14:22;1.00;;;0.35;;
13051;SDS011;6592;47.484;9.726;2022-12-29T03:17:16;1.13;;;0.38;;
13051;SDS011;6592;47.484;9.726;2022-12-29T03:19:55;1.55;;;0.47;;
13051;SDS011;6592;47.484;9.726;2022-12-29T03:22:29;1.30;;;0.50;;
13051;SDS011;6592;47.484;9.726;2022-12-29T03:25:03;1.38;;;0.47;;
13051;SDS011;6592;47.484;9.726;2022-12-29T03:27:34;0.82;;;0.30;;
13051;SDS011;6592;47.484;9.726;2022-12-29T03:30:07;2.22;;;0.40;;
13051;SDS011;6592;47.484;9.726;2022-12-29T03:32:37;1.83;;;0.47;;
13051;SDS011;6592;47.484;9.726;2022-12-29T03:35:12;1.48;;;0.40;;
13051;SDS011;6592;47.484;9.726;2022-12-29T03:37:44;0.52;;;0.20;;
13051;SDS011;6592;47.484;9.726;2022-12-29T03:40:17;1.92;;;0.50;;
13051;SDS011;6592;47.484;9.726;2022-12-29T03:42:48;1.17;;;0.40;;
13051;SDS011;6592;47.484;9.726;2022-12-29T03:45:16;0.90;;;0.30;;
13051;SDS011;6592;47.484;9.726;2022-12-29T03:47:46;1.67;;;0.40;;
13051;SDS011;6592;47.484;9.726;2022-12-29T03:50:16;1.10;;;0.50;;
13051;SDS011;6592;47.484;9.726;2022-12-29T03:52:44;1.25;;;0.30;;
13051;SDS011;6592;47.484;9.726;2022-12-29T03:55:13;1.10;;;0.40;;
13051;SDS011;6592;47.484;9.726;2022-12-29T03:57:41;0.90;;;0.30;;
13051;SDS011;6592;47.484;9.726;2022-12-29T04:00:10;1.77;;;0.40;;
13051;SDS011;6592;47.484;9.726;2022-12-29T04:02:39;0.80;;;0.35;;
13051;SDS011;6592;47.484;9.726;2022-12-29T04:05:08;2.00;;;0.25;;
13051;SDS011;6592;47.484;9.726;2022-12-29T04:07:38;1.48;;;0.50;;
13051;SDS011;6592;47.484;9.726;2022-12-29T04:10:07;0.65;;;0.30;;
13051;SDS011;6592;47.484;9.726;2022-12-29T04:12:36;1.27;;;0.50;;
13051;SDS011;6592;47.484;9.726;2022-12-29T04:15:04;0.77;;;0.40;;
13051;SDS011;6592;47.484;9.726;2022-12-29T04:17:33;1.20;;;0.30;;
13051;SDS011;6592;47.484;9.726;2022-12-29T04:20:02;2.10;;;0.50;;
13051;SDS011;6592;47.484;9.726;2022-12-29T04:22:50;3.03;;;0.77;;
13051;SDS011;6592;47.484;9.726;2022-12-29T04:25:26;2.90;;;1.13;;
13051;SDS011;6592;47.484;9.726;2022-12-29T04:27:55;2.33;;;0.80;;
13051;SDS011;6592;47.484;9.726;2022-12-29T04:30:23;1.15;;;0.40;;
13051;SDS011;6592;47.484;9.726;2022-12-29T04:32:52;0.85;;;0.40;;
13051;SDS011;6592;47.484;9.726;2022-12-29T04:35:20;0.73;;;0.30;;
13051;SDS011;6592;47.484;9.726;2022-12-29T04:37:49;0.85;;;0.45;;
13051;SDS011;6592;47.484;9.726;2022-12-29T04:40:19;1.02;;;0.43;;
13051;SDS011;6592;47.484;9.726;2022-12-29T04:42:47;1.20;;;0.50;;
13051;SDS011;6592;47.484;9.726;2022-12-29T04:45:15;0.98;;;0.40;;
13051;SDS011;6592;47.484;9.726;2022-12-29T04:47:44;1.20;;;0.32;;
13051;SDS011;6592;47.484;9.726;2022-12-29T04:50:12;1.98;;;0.30;;
13051;SDS011;6592;47.484;9.726;2022-12-29T04:52:40;1.10;;;0.43;;
13051;SDS011;6592;47.484;9.726;2022-12-29T04:55:10;1.45;;;0.50;;
13051;SDS011;6592;47.484;9.726;2022-12-29T04:57:39;0.90;;;0.30;;
13051;SDS011;6592;47.484;9.726;2022-12-29T05:00:09;1.00;;;0.38;;
13051;SDS011;6592;47.484;9.726;2022-12-29T05:02:38;1.17;;;0.52;;
13051;SDS011;6592;47.484;9.726;2022-12-29T05:05:07;1.25;;;0.57;;
13051;SDS011;6592;47.484;9.726;2022-12-29T05:07:36;2.65;;;0.50;;
13051;SDS011;6592;47.484;9.726;2022-12-29T05:10:05;1.30;;;0.43;;
13051;SDS011;6592;47.484;9.726;2022-12-29T05:12:36;1.42;;;0.40;;
13051;SDS011;6592;47.484;9.726;2022-12-29T05:15:05;2.38;;;0.50;;
13051;SDS011;6592;47.484;9.726;2022-12-29T05:17:35;1.38;;;0.50;;
13051;SDS011;6592;47.484;9.726;2022-12-29T05:20:05;1.38;;;0.52;;
13051;SDS011;6592;47.484;9.726;2022-12-29T05:22:34;1.65;;;0.47;;
13051;SDS011;6592;47.484;9.726;2022-12-29T05:25:03;4.00;;;0.50;;
13051;SDS011;6592;47.484;9.726;2022-12-29T05:27:32;1.10;;;0.40;;
13051;SDS011;6592;47.484;9.726;2022-12-29T05:30:02;1.13;;;0.40;;
13051;SDS011;6592;47.484;9.726;2022-12-29T05:32:30;1.40;;;0.50;;
13051;SDS011;6592;47.484;9.726;2022-12-29T05:34:59;0.88;;;0.40;;
13051;SDS011;6592;47.484;9.726;2022-12-29T05:37:27;1.42;;;0.50;;
13051;SDS011;6592;47.484;9.726;2022-12-29T05:39:56;1.05;;;0.40;;
13051;SDS011;6592;47.484;9.726;2022-12-29T05:42:25;1.42;;;0.60;;
13051;SDS011;6592;47.484;9.726;2022-12-29T05:44:54;2.35;;;0.63;;
13051;SDS011;6592;47.484;9.726;2022-12-29T05:47:24;2.00;;;0.82;;
13051;SDS011;6592;47.484;9.726;2022-12-29T05:49:52;1.45;;;0.60;;
13051;SDS011;6592;47.484;9.726;2022-12-29T05:52:21;3.03;;;0.57;;
13051;SDS011;6592;47.484;9.726;2022-12-29T05:54:50;0.98;;;0.35;;
13051;SDS011;6592;47.484;9.726;2022-12-29T05:57:18;1.17;;;0.43;;
13051;SDS011;6592;47.484;9.726;2022-12-29T05:59:47;1.40;;;0.47;;
13051;SDS011;6592;47.484;9.726;2022-12-29T06:02:15;1.65;;;0.57;;
13051;SDS011;6592;47.484;9.726;2022-12-29T06:04:45;2.20;;;0.65;;
13051;SDS011;6592;47.484;9.726;2022-12-29T06:07:14;1.42;;;0.50;;
13051;SDS011;6592;47.484;9.726;2022-12-29T06:09:43;1.77;;;0.45;;
13051;SDS011;6592;47.484;9.726;2022-12-29T06:12:11;1.00;;;0.50;;
13051;SDS011;6592;47.484;9.726;2022-12-29T06:14:40;1.33;;;0.60;;
13051;SDS011;6592;47.484;9.726;2022-12-29T06:17:09;1.77;;;0.52;;
13051;SDS011;6592;47.484;9.726;2022-12-29T06:19:37;1.38;;;0.47;;
13051;SDS011;6592;47.484;9.726;2022-12-29T06:22:07;1.10;;;0.40;;
13051;SDS011;6592;47.484;9.726;2022-12-29T06:24:38;2.60;;;0.68;;
13051;SDS011;6592;47.484;9.726;2022-12-29T06:27:07;1.38;;;0.57;;
13051;SDS011;6592;47.484;9.726;2022-12-29T06:29:36;1.23;;;0.68;;
13051;SDS011;6592;47.484;9.726;2022-12-29T06:32:07;1.38;;;0.40;;
13051;SDS011;6592;47.484;9.726;2022-12-29T06:34:36;1.17;;;0.50;;
13051;SDS011;6592;47.484;9.726;2022-12-29T06:37:04;1.52;;;0.30;;
13051;SDS011;6592;47.484;9.726;2022-12-29T06:39:34;1.67;;;0.52;;
13051;SDS011;6592;47.484;9.726;2022-12-29T06:42:03;5.60;;;1.83;;
13051;SDS011;6592;47.484;9.726;2022-12-29T06:44:31;1.15;;;0.50;;
13051;SDS011;6592;47.484;9.726;2022-12-29T06:46:59;1.20;;;0.40;;
13051;SDS011;6592;47.484;9.726;2022-12-29T06:49:28;2.80;;;1.52;;
13051;SDS011;6592;47.484;9.726;2022-12-29T06:51:56;4.60;;;1.80;;
13051;SDS011;6592;47.484;9.726;2022-12-29T06:54:27;3.05;;;1.80;;
13051;SDS011;6592;47.484;9.726;2022-12-29T06:56:56;4.40;;;1.40;;
13051;SDS011;6592;47.484;9.726;2022-12-29T06:59:25;2.70;;;1.10;;
13051;SDS011;6592;47.484;9.726;2022-12-29T07:01:54;2.08;;;1.20;;
13051;SDS011;6592;47.484;9.726;2022-12-29T07:04:22;3.42;;;2.35;;
13051;SDS011;6592;47.484;9.726;2022-12-29T07:06:52;8.02;;;2.45;;
13051;SDS011;6592;47.484;9.726;2022-12-29T07:09:20;3.30;;;1.20;;
13051;SDS011;6592;47.484;9.726;2022-12-29T07:11:48;4.53;;;1.33;;
13051;SDS011;6592;47.484;9.726;2022-12-29T07:14:18;5.70;;;1.13;;
13051;SDS011;6592;47.484;9.726;2022-12-29T07:16:47;2.75;;;0.75;;
13051;SDS011;6592;47.484;9.726;2022-12-29T07:19:15;1.80;;;0.60;;
13051;SDS011;6592;47.484;9.726;2022-12-29T07:21:44;1.17;;;0.60;;
13051;SDS011;6592;47.484;9.726;2022-12-29T07:24:12;1.70;;;0.80;;
13051;SDS011;6592;47.484;9.726;2022-12-29T07:26:40;1.67;;;0.60;;
13051;SDS011;6592;47.484;9.726;2022-12-29T07:29:09;1.77;;;0.68;;
13051;SDS011;6592;47.484;9.726;2022-12-29T07:31:38;2.13;;;0.80;;
13051;SDS011;6592;47.484;9.726;2022-12-29T07:34:07;3.42;;;0.90;;
13051;SDS011;6592;47.484;9.726;2022-12-29T07:36:36;2.22;;;1.00;;
13051;SDS011;6592;47.484;9.726;2022-12-29T07:39:04;3.45;;;1.40;;
13051;SDS011;6592;47.484;9.726;2022-12-29T07:41:33;2.55;;;1.20;;
13051;SDS011;6592;47.484;9.726;2022-12-29T07:44:01;3.63;;;0.90;;
13051;SDS011;6592;47.484;9.726;2022-12-29T07:46:29;2.00;;;0.70;;
13051;SDS011;6592;47.484;9.726;2022-12-29T07:49:19;2.20;;;0.70;;
13051;SDS011;6592;47.484;9.726;2022-12-29T07:51:47;2.47;;;0.73;;
13051;SDS011;6592;47.484;9.726;2022-12-29T07:54:16;2.28;;;0.88;;
13051;SDS011;6592;47.484;9.726;2022-12-29T07:56:45;2.65;;;1.20;;
13051;SDS011;6592;47.484;9.726;2022-12-29T07:59:13;1.60;;;0.90;;
13051;SDS011;6592;47.484;9.726;2022-12-29T08:01:42;3.53;;;1.30;;
13051;SDS011;6592;47.484;9.726;2022-12-29T08:04:10;2.58;;;1.00;;
13051;SDS011;6592;47.484;9.726;2022-12-29T08:06:40;2.33;;;1.00;;
13051;SDS011;6592;47.484;9.726;2022-12-29T08:09:08;3.33;;;1.20;;
13051;SDS011;6592;47.484;9.726;2022-12-29T08:11:44;4.32;;;1.10;;
13051;SDS011;6592;47.484;9.726;2022-12-29T08:14:13;3.33;;;1.00;;
13051;SDS011;6592;47.484;9.726;2022-12-29T08:16:41;3.95;;;0.80;;
13051;SDS011;6592;47.484;9.726;2022-12-29T08:19:10;2.75;;;0.85;;
13051;SDS011;6592;47.484;9.726;2022-12-29T08:21:39;2.45;;;0.90;;
13051;SDS011;6592;47.484;9.726;2022-12-29T08:24:08;3.88;;;1.30;;
13051;SDS011;6592;47.484;9.726;2022-12-29T08:26:37;2.17;;;1.10;;
13051;SDS011;6592;47.484;9.726;2022-12-29T08:29:06;4.78;;;1.40;;
13051;SDS011;6592;47.484;9.726;2022-12-29T08:31:34;3.33;;;1.20;;
13051;SDS011;6592;47.484;9.726;2022-12-29T08:34:03;4.07;;;0.90;;
13051;SDS011;6592;47.484;9.726;2022-12-29T08:36:32;2.05;;;0.95;;
13051;SDS011;6592;47.484;9.726;2022-12-29T08:39:01;1.80;;;0.70;;
13051;SDS011;6592;47.484;9.726;2022-12-29T08:41:30;1.90;;;0.90;;
13051;SDS011;6592;47.484;9.726;2022-12-29T08:43:58;1.90;;;0.80;;
13051;SDS011;6592;47.484;9.726;2022-12-29T08:46:27;2.22;;;0.90;;
13051;SDS011;6592;47.484;9.726;2022-12-29T08:48:56;1.92;;;0.80;;
13051;SDS011;6592;47.484;9.726;2022-12-29T08:51:25;1.85;;;0.82;;
13051;SDS011;6592;47.484;9.726;2022-12-29T08:53:53;1.83;;;0.80;;
13051;SDS011;6592;47.484;9.726;2022-12-29T08:56:23;1.95;;;0.77;;
13051;SDS011;6592;47.484;9.726;2022-12-29T08:58:52;2.72;;;0.90;;
13051;SDS011;6592;47.484;9.726;2022-12-29T09:01:21;7.32;;;3.30;;
13051;SDS011;6592;47.484;9.726;2022-12-29T09:03:50;2.75;;;1.00;;
13051;SDS011;6592;47.484;9.726;2022-12-29T09:06:38;1.50;;;0.60;;
13051;SDS011;6592;47.484;9.726;2022-12-29T09:09:07;3.78;;;0.80;;
13051;SDS011;6592;47.484;9.726;2022-12-29T09:11:37;2.30;;;0.90;;
13051;SDS011;6592;47.484;9.726;2022-12-29T09:14:05;1.73;;;0.60;;
13051;SDS011;6592;47.484;9.726;2022-12-29T09:16:34;2.00;;;0.80;;
13051;SDS011;6592;47.484;9.726;2022-12-29T09:19:02;4.90;;;1.05;;
13051;SDS011;6592;47.484;9.726;2022-12-29T09:21:31;2.42;;;0.93;;
13051;SDS011;6592;47.484;9.726;2022-12-29T09:23:59;1.65;;;0.80;;
13051;SDS011;6592;47.484;9.726;2022-12-29T09:26:28;3.72;;;1.27;;
13051;SDS011;6592;47.484;9.726;2022-12-29T09:28:58;3.05;;;1.15;;
13051;SDS011;6592;47.484;9.726;2022-12-29T09:31:26;3.00;;;1.13;;
13051;SDS011;6592;47.484;9.726;2022-12-29T09:33:54;3.78;;;1.20;;
13051;SDS011;6592;47.484;9.726;2022-12-29T09:36:22;2.88;;;1.00;;
13051;SDS011;6592;47.484;9.726;2022-12-29T09:38:52;3.35;;;1.17;;
13051;SDS011;6592;47.484;9.726;2022-12-29T09:41:24;1.60;;;0.88;;
13051;SDS011;6592;47.484;9.726;2022-12-29T09:43:59;2.25;;;0.80;;
13051;SDS011;6592;47.484;9.726;2022-12-29T09:46:37;4.95;;;1.20;;
13051;SDS011;6592;47.484;9.726;2022-12-29T09:49:13;3.45;;;1.20;;
13051;SDS011;6592;47.484;9.726;2022-12-29T09:51:48;3.00;;;1.25;;
13051;SDS011;6592;47.484;9.726;2022-12-29T09:54:23;3.97;;;1.27;;
13051;SDS011;6592;47.484;9.726;2022-12-29T09:57:00;1.98;;;0.75;;
13051;SDS011;6592;47.484;9.726;2022-12-29T09:59:34;3.20;;;0.95;;
13051;SDS011;6592;47.484;9.726;2022-12-29T10:02:12;4.00;;;1.27;;
13051;SDS011;6592;47.484;9.726;2022-12-29T10:04:49;1.92;;;0.88;;
13051;SDS011;6592;47.484;9.726;2022-12-29T10:07:23;4.35;;;1.15;;
13051;SDS011;6592;47.484;9.726;2022-12-29T10:10:01;1.85;;;0.82;;
13051;SDS011;6592;47.484;9.726;2022-12-29T10:12:41;2.58;;;1.02;;
13051;SDS011;6592;47.484;9.726;2022-12-29T10:15:26;4.53;;;1.70;;
13051;SDS011;6592;47.484;9.726;2022-12-29T10:18:10;3.38;;;1.10;;
13051;SDS011;6592;47.484;9.726;2022-12-29T10:20:48;2.55;;;0.85;;
13051;SDS011;6592;47.484;9.726;2022-12-29T10:23:22;1.40;;;0.60;;
13051;SDS011;6592;47.484;9.726;2022-12-29T10:25:55;1.10;;;0.60;;
13051;SDS011;6592;47.484;9.726;2022-12-29T10:28:28;4.85;;;1.15;;
13051;SDS011;6592;47.484;9.726;2022-12-29T10:31:05;2.17;;;0.82;;
13051;SDS011;6592;47.484;9.726;2022-12-29T10:33:39;2.72;;;0.82;;
13051;SDS011;6592;47.484;9.726;2022-12-29T10:36:13;1.70;;;0.77;;
13051;SDS011;6592;47.484;9.726;2022-12-29T10:38:45;1.48;;;0.70;;
13051;SDS011;6592;47.484;9.726;2022-12-29T10:41:20;2.00;;;0.70;;
13051;SDS011;6592;47.484;9.726;2022-12-29T10:43:53;2.05;;;0.90;;
13051;SDS011;6592;47.484;9.726;2022-12-29T10:46:25;1.77;;;0.90;;
13051;SDS011;6592;47.484;9.726;2022-12-29T10:48:56;2.50;;;0.85;;
13051;SDS011;6592;47.484;9.726;2022-12-29T10:51:27;3.10;;;0.68;;
13051;SDS011;6592;47.484;9.726;2022-12-29T10:54:02;2.67;;;1.05;;
13051;SDS011;6592;47.484;9.726;2022-12-29T10:56:34;2.20;;;1.10;;
13051;SDS011;6592;47.484;9.726;2022-12-29T10:59:05;3.13;;;1.10;;
13051;SDS011;6592;47.484;9.726;2022-12-29T11:01:48;1.23;;;0.70;;
13051;SDS011;6592;47.484;9.726;2022-12-29T11:04:25;2.33;;;1.00;;
13051;SDS011;6592;47.484;9.726;2022-12-29T11:07:03;1.85;;;0.90;;
13051;SDS011;6592;47.484;9.726;2022-12-29T11:09:39;2.58;;;1.00;;
13051;SDS011;6592;47.484;9.726;2022-12-29T11:12:19;3.08;;;0.82;;
13051;SDS011;6592;47.484;9.726;2022-12-29T11:14:59;3.05;;;0.57;;
13051;SDS011;6592;47.484;9.726;2022-12-29T11:17:31;1.52;;;0.70;;
13051;SDS011;6592;47.484;9.726;2022-12-29T11:20:27;1.95;;;0.70;;
13051;SDS011;6592;47.484;9.726;2022-12-29T11:22:58;1.98;;;0.65;;
13051;SDS011;6592;47.484;9.726;2022-12-29T11:25:27;2.00;;;0.80;;
13051;SDS011;6592;47.484;9.726;2022-12-29T11:27:56;2.17;;;0.63;;
13051;SDS011;6592;47.484;9.726;2022-12-29T11:30:27;1.98;;;0.70;;
13051;SDS011;6592;47.484;9.726;2022-12-29T11:32:58;1.63;;;0.57;;
13051;SDS011;6592;47.484;9.726;2022-12-29T11:35:32;1.50;;;0.60;;
13051;SDS011;6592;47.484;9.726;2022-12-29T11:38:03;2.10;;;0.80;;
13051;SDS011;6592;47.484;9.726;2022-12-29T11:40:32;1.58;;;0.68;;
13051;SDS011;6592;47.484;9.726;2022-12-29T11:43:11;2.28;;;0.93;;
13051;SDS011;6592;47.484;9.726;2022-12-29T11:45:49;1.30;;;0.63;;
13051;SDS011;6592;47.484;9.726;2022-12-29T11:48:24;2.50;;;1.00;;
13051;SDS011;6592;47.484;9.726;2022-12-29T11:50:57;1.70;;;0.73;;
13051;SDS011;6592;47.484;9.726;2022-12-29T11:53:28;2.00;;;0.80;;
13051;SDS011;6592;47.484;9.726;2022-12-29T11:56:04;2.45;;;0.70;;
13051;SDS011;6592;47.484;9.726;2022-12-29T11:58:36;3.42;;;0.70;;
13051;SDS011;6592;47.484;9.726;2022-12-29T12:01:07;3.35;;;1.00;;
13051;SDS011;6592;47.484;9.726;2022-12-29T12:03:44;1.80;;;0.68;;
13051;SDS011;6592;47.484;9.726;2022-12-29T12:06:16;2.42;;;0.88;;
13051;SDS011;6592;47.484;9.726;2022-12-29T12:08:51;2.05;;;0.80;;
13051;SDS011;6592;47.484;9.726;2022-12-29T12:11:24;2.17;;;1.00;;
13051;SDS011;6592;47.484;9.726;2022-12-29T12:14:00;2.13;;;0.80;;
13051;SDS011;6592;47.484;9.726;2022-12-29T12:16:33;1.98;;;0.75;;
13051;SDS011;6592;47.484;9.726;2022-12-29T12:19:13;3.30;;;0.75;;
13051;SDS011;6592;47.484;9.726;2022-12-29T12:21:48;1.83;;;0.75;;
13051;SDS011;6592;47.484;9.726;2022-12-29T12:24:36;2.83;;;0.63;;
13051;SDS011;6592;47.484;9.726;2022-12-29T12:27:11;1.35;;;0.60;;
13051;SDS011;6592;47.484;9.726;2022-12-29T12:29:46;2.35;;;0.80;;
13051;SDS011;6592;47.484;9.726;2022-12-29T12:32:20;2.38;;;0.93;;
13051;SDS011;6592;47.484;9.726;2022-12-29T12:34:56;2.20;;;0.82;;
13051;SDS011;6592;47.484;9.726;2022-12-29T12:37:31;2.28;;;0.90;;
13051;SDS011;6592;47.484;9.726;2022-12-29T12:43:06;2.95;;;0.98;;
13051;SDS011;6592;47.484;9.726;2022-12-29T12:45:52;2.42;;;1.10;;
13051;SDS011;6592;47.484;9.726;2022-12-29T12:48:37;3.10;;;1.23;;
13051;SDS011;6592;47.484;9.726;2022-12-29T12:51:30;2.40;;;1.00;;
13051;SDS011;6592;47.484;9.726;2022-12-29T12:54:09;2.30;;;1.00;;
13051;SDS011;6592;47.484;9.726;2022-12-29T12:56:51;2.10;;;1.10;;
13051;SDS011;6592;47.484;9.726;2022-12-29T12:59:32;2.40;;;0.88;;
13051;SDS011;6592;47.484;9.726;2022-12-29T13:02:20;2.50;;;0.90;;
13051;SDS011;6592;47.484;9.726;2022-12-29T13:07:59;3.20;;;1.02;;
13051;SDS011;6592;47.484;9.726;2022-12-29T13:10:47;2.40;;;1.10;;
13051;SDS011;6592;47.484;9.726;2022-12-29T13:16:29;2.78;;;1.08;;
13051;SDS011;6592;47.484;9.726;2022-12-29T13:19:06;4.22;;;1.20;;
13051;SDS011;6592;47.484;9.726;2022-12-29T13:21:48;3.70;;;1.45;;
13051;SDS011;6592;47.484;9.726;2022-12-29T13:24:34;5.53;;;1.65;;
13051;SDS011;6592;47.484;9.726;2022-12-29T13:27:14;4.22;;;1.30;;
13051;SDS011;6592;47.484;9.726;2022-12-29T13:29:51;3.10;;;1.00;;
13051;SDS011;6592;47.484;9.726;2022-12-29T13:32:31;3.17;;;1.23;;
13051;SDS011;6592;47.484;9.726;2022-12-29T13:35:15;4.40;;;1.20;;
13051;SDS011;6592;47.484;9.726;2022-12-29T13:37:55;4.95;;;1.40;;
13051;SDS011;6592;47.484;9.726;2022-12-29T13:40:32;2.75;;;1.02;;
13051;SDS011;6592;47.484;9.726;2022-12-29T13:43:05;3.83;;;1.30;;
13051;SDS011;6592;47.484;9.726;2022-12-29T13:45:34;3.00;;;1.42;;
13051;SDS011;6592;47.484;9.726;2022-12-29T13:48:05;3.97;;;1.30;;
13051;SDS011;6592;47.484;9.726;2022-12-29T13:50:40;4.07;;;1.75;;
13051;SDS011;6592;47.484;9.726;2022-12-29T13:53:13;6.97;;;1.88;;
13051;SDS011;6592;47.484;9.726;2022-12-29T13:55:55;5.35;;;2.15;;
13051;SDS011;6592;47.484;9.726;2022-12-29T13:58:30;5.38;;;2.15;;
13051;SDS011;6592;47.484;9.726;2022-12-29T14:01:07;5.60;;;2.28;;
13051;SDS011;6592;47.484;9.726;2022-12-29T14:03:44;6.13;;;2.40;;
13051;SDS011;6592;47.484;9.726;2022-12-29T14:06:18;5.57;;;2.35;;
13051;SDS011;6592;47.484;9.726;2022-12-29T14:08:50;4.05;;;1.75;;
13051;SDS011;6592;47.484;9.726;2022-12-29T14:11:23;7.88;;;2.30;;
13051;SDS011;6592;47.484;9.726;2022-12-29T14:13:58;9.52;;;3.00;;
13051;SDS011;6592;47.484;9.726;2022-12-29T14:16:38;5.30;;;2.35;;
13051;SDS011;6592;47.484;9.726;2022-12-29T14:19:13;5.20;;;2.20;;
13051;SDS011;6592;47.484;9.726;2022-12-29T14:21:51;7.03;;;2.67;;
13051;SDS011;6592;47.484;9.726;2022-12-29T14:33:30;4.68;;;2.00;;
13051;SDS011;6592;47.484;9.726;2022-12-29T14:38:47;5.78;;;2.78;;
13051;SDS011;6592;47.484;9.726;2022-12-29T14:41:17;9.88;;;4.63;;
13051;SDS011;6592;47.484;9.726;2022-12-29T14:43:57;5.25;;;2.88;;
13051;SDS011;6592;47.484;9.726;2022-12-29T14:46:54;10.18;;;5.00;;
13051;SDS011;6592;47.484;9.726;2022-12-29T14:49:25;6.65;;;2.90;;
13051;SDS011;6592;47.484;9.726;2022-12-29T14:57:48;14.95;;;5.70;;
13051;SDS011;6592;47.484;9.726;2022-12-29T15:00:19;13.38;;;4.68;;
13051;SDS011;6592;47.484;9.726;2022-12-29T15:02:54;9.30;;;2.90;;
13051;SDS011;6592;47.484;9.726;2022-12-29T15:05:35;4.20;;;1.90;;
13051;SDS011;6592;47.484;9.726;2022-12-29T15:08:10;6.25;;;2.60;;
13051;SDS011;6592;47.484;9.726;2022-12-29T15:10:41;7.15;;;2.83;;
13051;SDS011;6592;47.484;9.726;2022-12-29T15:13:15;6.38;;;2.63;;
13051;SDS011;6592;47.484;9.726;2022-12-29T15:15:45;5.68;;;2.80;;
13051;SDS011;6592;47.484;9.726;2022-12-29T15:18:21;8.88;;;3.28;;
13051;SDS011;6592;47.484;9.726;2022-12-29T15:20:51;10.93;;;3.15;;
13051;SDS011;6592;47.484;9.726;2022-12-29T15:23:23;7.05;;;3.22;;
13051;SDS011;6592;47.484;9.726;2022-12-29T15:25:53;8.18;;;3.08;;
13051;SDS011;6592;47.484;9.726;2022-12-29T15:28:23;8.25;;;3.28;;
13051;SDS011;6592;47.484;9.726;2022-12-29T15:30:53;7.20;;;3.15;;
13051;SDS011;6592;47.484;9.726;2022-12-29T15:33:26;6.93;;;2.60;;
13051;SDS011;6592;47.484;9.726;2022-12-29T15:35:56;6.80;;;2.60;;
13051;SDS011;6592;47.484;9.726;2022-12-29T15:38:30;11.98;;;4.93;;
13051;SDS011;6592;47.484;9.726;2022-12-29T15:41:06;8.80;;;3.63;;
13051;SDS011;6592;47.484;9.726;2022-12-29T15:43:47;8.60;;;3.42;;
13051;SDS011;6592;47.484;9.726;2022-12-29T15:46:21;13.35;;;5.05;;
13051;SDS011;6592;47.484;9.726;2022-12-29T15:48:51;20.40;;;7.03;;
13051;SDS011;6592;47.484;9.726;2022-12-29T15:51:21;15.27;;;6.22;;
13051;SDS011;6592;47.484;9.726;2022-12-29T15:53:56;11.05;;;4.63;;
13051;SDS011;6592;47.484;9.726;2022-12-29T15:56:29;10.98;;;4.25;;
13051;SDS011;6592;47.484;9.726;2022-12-29T15:58:58;8.02;;;3.20;;
13051;SDS011;6592;47.484;9.726;2022-12-29T16:01:28;6.75;;;2.58;;
13051;SDS011;6592;47.484;9.726;2022-12-29T16:06:32;7.55;;;2.35;;
13051;SDS011;6592;47.484;9.726;2022-12-29T16:09:02;6.47;;;2.53;;
13051;SDS011;6592;47.484;9.726;2022-12-29T16:11:33;7.80;;;3.15;;
13051;SDS011;6592;47.484;9.726;2022-12-29T16:14:06;6.72;;;3.35;;
13051;SDS011;6592;47.484;9.726;2022-12-29T16:16:37;11.07;;;5.22;;